sensor_id;sensor_type;location;lat;lon;timestamp;P1;durP1;ratioP1;P2;durP2;ratioP2
29362;SDS011;16349;53.672;10.014;2022-07-22T00:00:12;17.30;;;15.20;;
29362;SDS011;16349;53.672;10.014;2022-07-22T00:02:40;17.03;;;15.33;;
29362;SDS011;16349;53.672;10.014;2022-07-22T00:05:08;18.20;;;16.20;;
29362;SDS011;16349;53.672;10.014;2022-07-22T00:07:36;21.30;;;17.17;;
29362;SDS011;16349;53.672;10.014;2022-07-22T00:10:05;23.43;;;18.23;;
29362;SDS011;16349;53.672;10.014;2022-07-22T00:12:33;21.77;;;17.83;;
29362;SDS011;16349;53.672;10.014;2022-07-22T00:15:01;20.60;;;16.47;;
29362;SDS011;16349;53.672;10.014;2022-07-22T00:17:28;21.50;;;15.87;;
29362;SDS011;16349;53.672;10.014;2022-07-22T00:19:55;19.93;;;14.50;;
29362;SDS011;16349;53.672;10.014;2022-07-22T00:22:22;25.20;;;16.17;;
29362;SDS011;16349;53.672;10.014;2022-07-22T00:24:49;27.23;;;16.00;;
29362;SDS011;16349;53.672;10.014;2022-07-22T00:27:18;22.60;;;15.93;;
29362;SDS011;16349;53.672;10.014;2022-07-22T00:29:45;21.77;;;15.80;;
29362;SDS011;16349;53.672;10.014;2022-07-22T00:32:11;22.20;;;16.43;;
29362;SDS011;16349;53.672;10.014;2022-07-22T00:34:38;24.30;;;16.10;;
29362;SDS011;16349;53.672;10.014;2022-07-22T00:37:06;20.03;;;15.20;;
29362;SDS011;16349;53.672;10.014;2022-07-22T00:39:32;22.30;;;13.77;;
29362;SDS011;16349;53.672;10.014;2022-07-22T00:42:00;17.33;;;11.63;;
29362;SDS011;16349;53.672;10.014;2022-07-22T00:44:28;11.37;;;9.53;;
29362;SDS011;16349;53.672;10.014;2022-07-22T00:46:55;9.87;;;8.27;;
29362;SDS011;16349;53.672;10.014;2022-07-22T00:49:22;8.63;;;7.40;;
29362;SDS011;16349;53.672;10.014;2022-07-22T00:51:49;9.27;;;6.43;;
29362;SDS011;16349;53.672;10.014;2022-07-22T00:54:16;5.57;;;5.00;;
29362;SDS011;16349;53.672;10.014;2022-07-22T00:56:43;4.10;;;3.70;;
29362;SDS011;16349;53.672;10.014;2022-07-22T00:59:12;4.10;;;3.80;;
29362;SDS011;16349;53.672;10.014;2022-07-22T01:01:41;4.33;;;3.83;;
29362;SDS011;16349;53.672;10.014;2022-07-22T01:04:08;3.23;;;2.90;;
29362;SDS011;16349;53.672;10.014;2022-07-22T01:06:34;4.40;;;2.80;;
29362;SDS011;16349;53.672;10.014;2022-07-22T01:09:02;2.30;;;2.10;;
29362;SDS011;16349;53.672;10.014;2022-07-22T01:11:29;2.53;;;2.17;;
29362;SDS011;16349;53.672;10.014;2022-07-22T01:13:56;2.03;;;1.83;;
29362;SDS011;16349;53.672;10.014;2022-07-22T01:16:23;3.10;;;2.17;;
29362;SDS011;16349;53.672;10.014;2022-07-22T01:18:52;3.00;;;2.47;;
29362;SDS011;16349;53.672;10.014;2022-07-22T01:21:20;2.33;;;2.13;;
29362;SDS011;16349;53.672;10.014;2022-07-22T01:23:48;3.17;;;1.90;;
29362;SDS011;16349;53.672;10.014;2022-07-22T01:26:15;2.83;;;1.80;;
29362;SDS011;16349;53.672;10.014;2022-07-22T01:28:43;4.00;;;2.30;;
29362;SDS011;16349;53.672;10.014;2022-07-22T01:31:11;2.60;;;2.10;;
29362;SDS011;16349;53.672;10.014;2022-07-22T01:33:39;4.10;;;2.00;;
29362;SDS011;16349;53.672;10.014;2022-07-22T01:36:06;3.47;;;1.73;;
29362;SDS011;16349;53.672;10.014;2022-07-22T01:38:35;4.30;;;2.17;;
29362;SDS011;16349;53.672;10.014;2022-07-22T01:41:02;2.57;;;1.50;;
29362;SDS011;16349;53.672;10.014;2022-07-22T01:43:30;2.63;;;1.50;;
29362;SDS011;16349;53.672;10.014;2022-07-22T01:45:58;2.40;;;1.70;;
29362;SDS011;16349;53.672;10.014;2022-07-22T01:48:26;4.60;;;1.83;;
29362;SDS011;16349;53.672;10.014;2022-07-22T01:50:53;4.40;;;1.80;;
29362;SDS011;16349;53.672;10.014;2022-07-22T01:53:21;3.83;;;2.27;;
29362;SDS011;16349;53.672;10.014;2022-07-22T01:55:49;7.97;;;3.00;;
29362;SDS011;16349;53.672;10.014;2022-07-22T01:58:18;5.57;;;2.73;;
29362;SDS011;16349;53.672;10.014;2022-07-22T02:00:46;7.13;;;4.10;;
29362;SDS011;16349;53.672;10.014;2022-07-22T02:03:14;10.63;;;5.20;;
29362;SDS011;16349;53.672;10.014;2022-07-22T02:05:41;8.57;;;4.70;;
29362;SDS011;16349;53.672;10.014;2022-07-22T02:08:22;10.53;;;4.73;;
29362;SDS011;16349;53.672;10.014;2022-07-22T02:11:08;8.43;;;4.83;;
29362;SDS011;16349;53.672;10.014;2022-07-22T02:13:45;7.97;;;5.30;;
29362;SDS011;16349;53.672;10.014;2022-07-22T02:16:12;11.67;;;4.83;;
29362;SDS011;16349;53.672;10.014;2022-07-22T02:18:39;8.97;;;5.77;;
29362;SDS011;16349;53.672;10.014;2022-07-22T02:21:07;8.10;;;5.27;;
29362;SDS011;16349;53.672;10.014;2022-07-22T02:23:35;9.40;;;5.43;;
29362;SDS011;16349;53.672;10.014;2022-07-22T02:26:03;11.87;;;6.10;;
29362;SDS011;16349;53.672;10.014;2022-07-22T02:28:31;10.13;;;5.40;;
29362;SDS011;16349;53.672;10.014;2022-07-22T02:30:58;9.23;;;5.00;;
29362;SDS011;16349;53.672;10.014;2022-07-22T02:33:25;11.97;;;4.67;;
29362;SDS011;16349;53.672;10.014;2022-07-22T02:35:54;5.47;;;4.10;;
29362;SDS011;16349;53.672;10.014;2022-07-22T02:38:21;7.03;;;4.13;;
29362;SDS011;16349;53.672;10.014;2022-07-22T02:40:48;6.50;;;3.97;;
29362;SDS011;16349;53.672;10.014;2022-07-22T02:43:15;8.37;;;3.50;;
29362;SDS011;16349;53.672;10.014;2022-07-22T02:45:44;9.07;;;3.93;;
29362;SDS011;16349;53.672;10.014;2022-07-22T02:48:11;4.57;;;3.17;;
29362;SDS011;16349;53.672;10.014;2022-07-22T02:50:38;4.77;;;2.93;;
29362;SDS011;16349;53.672;10.014;2022-07-22T02:53:10;5.83;;;3.10;;
29362;SDS011;16349;53.672;10.014;2022-07-22T02:55:38;7.13;;;2.40;;
29362;SDS011;16349;53.672;10.014;2022-07-22T02:58:05;3.50;;;2.70;;
29362;SDS011;16349;53.672;10.014;2022-07-22T03:00:34;8.80;;;2.80;;
29362;SDS011;16349;53.672;10.014;2022-07-22T03:03:04;6.90;;;3.37;;
29362;SDS011;16349;53.672;10.014;2022-07-22T03:05:32;4.67;;;2.87;;
29362;SDS011;16349;53.672;10.014;2022-07-22T03:08:17;4.73;;;2.43;;
29362;SDS011;16349;53.672;10.014;2022-07-22T03:10:45;8.53;;;2.87;;
29362;SDS011;16349;53.672;10.014;2022-07-22T03:13:12;7.40;;;2.70;;
29362;SDS011;16349;53.672;10.014;2022-07-22T03:15:39;7.27;;;2.67;;
29362;SDS011;16349;53.672;10.014;2022-07-22T03:18:08;5.43;;;2.27;;
29362;SDS011;16349;53.672;10.014;2022-07-22T03:20:34;6.20;;;2.40;;
29362;SDS011;16349;53.672;10.014;2022-07-22T03:23:02;4.93;;;2.20;;
29362;SDS011;16349;53.672;10.014;2022-07-22T03:25:30;5.87;;;2.23;;
29362;SDS011;16349;53.672;10.014;2022-07-22T03:27:57;7.57;;;2.17;;
29362;SDS011;16349;53.672;10.014;2022-07-22T03:30:24;4.17;;;2.10;;
29362;SDS011;16349;53.672;10.014;2022-07-22T03:32:52;4.40;;;1.80;;
29362;SDS011;16349;53.672;10.014;2022-07-22T03:35:22;4.77;;;2.10;;
29362;SDS011;16349;53.672;10.014;2022-07-22T03:37:49;6.90;;;2.50;;
29362;SDS011;16349;53.672;10.014;2022-07-22T03:40:17;3.70;;;1.90;;
29362;SDS011;16349;53.672;10.014;2022-07-22T03:42:44;4.73;;;1.90;;
29362;SDS011;16349;53.672;10.014;2022-07-22T03:45:12;5.67;;;2.10;;
29362;SDS011;16349;53.672;10.014;2022-07-22T03:47:39;6.13;;;1.90;;
29362;SDS011;16349;53.672;10.014;2022-07-22T03:50:08;8.23;;;2.53;;
29362;SDS011;16349;53.672;10.014;2022-07-22T03:52:36;7.23;;;2.27;;
29362;SDS011;16349;53.672;10.014;2022-07-22T03:55:07;5.80;;;1.80;;
29362;SDS011;16349;53.672;10.014;2022-07-22T03:57:34;4.93;;;2.10;;
29362;SDS011;16349;53.672;10.014;2022-07-22T04:00:07;7.93;;;2.30;;
29362;SDS011;16349;53.672;10.014;2022-07-22T04:02:42;7.27;;;2.00;;
29362;SDS011;16349;53.672;10.014;2022-07-22T04:05:15;4.77;;;1.80;;
29362;SDS011;16349;53.672;10.014;2022-07-22T04:07:44;4.07;;;2.07;;
29362;SDS011;16349;53.672;10.014;2022-07-22T04:10:10;4.13;;;2.20;;
29362;SDS011;16349;53.672;10.014;2022-07-22T04:12:41;2.40;;;1.70;;
29362;SDS011;16349;53.672;10.014;2022-07-22T04:15:23;3.37;;;1.93;;
29362;SDS011;16349;53.672;10.014;2022-07-22T04:17:50;6.83;;;2.77;;
29362;SDS011;16349;53.672;10.014;2022-07-22T04:20:18;7.07;;;2.53;;
29362;SDS011;16349;53.672;10.014;2022-07-22T04:23:09;3.93;;;2.30;;
29362;SDS011;16349;53.672;10.014;2022-07-22T04:25:37;4.07;;;2.30;;
29362;SDS011;16349;53.672;10.014;2022-07-22T04:28:04;7.13;;;2.17;;
29362;SDS011;16349;53.672;10.014;2022-07-22T04:30:31;6.40;;;2.63;;
29362;SDS011;16349;53.672;10.014;2022-07-22T04:32:59;2.67;;;1.90;;
29362;SDS011;16349;53.672;10.014;2022-07-22T04:35:26;4.97;;;2.40;;
29362;SDS011;16349;53.672;10.014;2022-07-22T04:38:06;5.50;;;2.10;;
29362;SDS011;16349;53.672;10.014;2022-07-22T04:40:37;5.47;;;2.47;;
29362;SDS011;16349;53.672;10.014;2022-07-22T04:43:04;4.77;;;1.93;;
29362;SDS011;16349;53.672;10.014;2022-07-22T04:45:30;6.23;;;2.20;;
29362;SDS011;16349;53.672;10.014;2022-07-22T04:47:57;7.50;;;2.40;;
29362;SDS011;16349;53.672;10.014;2022-07-22T04:50:24;8.33;;;2.77;;
29362;SDS011;16349;53.672;10.014;2022-07-22T04:52:58;5.57;;;2.43;;
29362;SDS011;16349;53.672;10.014;2022-07-22T04:55:25;9.57;;;2.93;;
29362;SDS011;16349;53.672;10.014;2022-07-22T04:57:54;9.97;;;2.67;;
29362;SDS011;16349;53.672;10.014;2022-07-22T05:00:21;7.33;;;2.57;;
29362;SDS011;16349;53.672;10.014;2022-07-22T05:02:52;7.00;;;2.70;;
29362;SDS011;16349;53.672;10.014;2022-07-22T05:05:20;7.40;;;3.00;;
29362;SDS011;16349;53.672;10.014;2022-07-22T05:07:47;7.23;;;2.70;;
29362;SDS011;16349;53.672;10.014;2022-07-22T05:10:15;6.73;;;2.77;;
29362;SDS011;16349;53.672;10.014;2022-07-22T05:12:42;12.70;;;2.97;;
29362;SDS011;16349;53.672;10.014;2022-07-22T05:15:11;5.53;;;3.13;;
29362;SDS011;16349;53.672;10.014;2022-07-22T05:17:38;6.23;;;3.23;;
29362;SDS011;16349;53.672;10.014;2022-07-22T05:20:16;6.70;;;3.33;;
29362;SDS011;16349;53.672;10.014;2022-07-22T05:22:43;12.63;;;2.80;;
29362;SDS011;16349;53.672;10.014;2022-07-22T05:25:15;6.67;;;3.77;;
29362;SDS011;16349;53.672;10.014;2022-07-22T05:27:49;8.33;;;4.03;;
29362;SDS011;16349;53.672;10.014;2022-07-22T05:30:21;8.43;;;3.53;;
29362;SDS011;16349;53.672;10.014;2022-07-22T05:32:48;9.57;;;3.23;;
29362;SDS011;16349;53.672;10.014;2022-07-22T05:35:20;7.57;;;3.30;;
29362;SDS011;16349;53.672;10.014;2022-07-22T05:37:47;6.90;;;2.83;;
29362;SDS011;16349;53.672;10.014;2022-07-22T05:40:14;7.47;;;3.27;;
29362;SDS011;16349;53.672;10.014;2022-07-22T05:42:42;9.57;;;2.97;;
29362;SDS011;16349;53.672;10.014;2022-07-22T05:45:09;9.83;;;3.43;;
29362;SDS011;16349;53.672;10.014;2022-07-22T05:47:38;10.57;;;3.37;;
29362;SDS011;16349;53.672;10.014;2022-07-22T05:50:05;8.23;;;3.47;;
29362;SDS011;16349;53.672;10.014;2022-07-22T05:52:35;9.20;;;3.47;;
29362;SDS011;16349;53.672;10.014;2022-07-22T05:55:02;8.50;;;3.40;;
29362;SDS011;16349;53.672;10.014;2022-07-22T05:57:30;13.13;;;3.33;;
29362;SDS011;16349;53.672;10.014;2022-07-22T05:59:58;8.57;;;2.97;;
29362;SDS011;16349;53.672;10.014;2022-07-22T06:02:25;6.90;;;3.27;;
29362;SDS011;16349;53.672;10.014;2022-07-22T06:04:53;9.47;;;3.43;;
29362;SDS011;16349;53.672;10.014;2022-07-22T06:07:21;11.47;;;3.40;;
29362;SDS011;16349;53.672;10.014;2022-07-22T06:09:55;5.90;;;2.93;;
29362;SDS011;16349;53.672;10.014;2022-07-22T06:12:23;7.13;;;2.93;;
29362;SDS011;16349;53.672;10.014;2022-07-22T06:14:50;9.30;;;3.23;;
29362;SDS011;16349;53.672;10.014;2022-07-22T06:17:18;5.27;;;2.70;;
29362;SDS011;16349;53.672;10.014;2022-07-22T06:19:45;7.33;;;2.83;;
29362;SDS011;16349;53.672;10.014;2022-07-22T06:22:13;7.80;;;3.23;;
29362;SDS011;16349;53.672;10.014;2022-07-22T06:24:42;8.07;;;3.60;;
29362;SDS011;16349;53.672;10.014;2022-07-22T06:27:10;8.13;;;2.83;;
29362;SDS011;16349;53.672;10.014;2022-07-22T06:29:36;4.97;;;2.60;;
29362;SDS011;16349;53.672;10.014;2022-07-22T06:32:04;5.87;;;2.53;;
29362;SDS011;16349;53.672;10.014;2022-07-22T06:34:31;8.47;;;3.10;;
29362;SDS011;16349;53.672;10.014;2022-07-22T06:37:02;4.53;;;3.10;;
29362;SDS011;16349;53.672;10.014;2022-07-22T06:39:31;6.97;;;2.83;;
29362;SDS011;16349;53.672;10.014;2022-07-22T06:42:15;7.27;;;2.60;;
29362;SDS011;16349;53.672;10.014;2022-07-22T06:45:02;7.67;;;2.97;;
29362;SDS011;16349;53.672;10.014;2022-07-22T06:47:39;9.77;;;3.20;;
29362;SDS011;16349;53.672;10.014;2022-07-22T06:50:09;6.13;;;2.47;;
29362;SDS011;16349;53.672;10.014;2022-07-22T06:52:38;10.97;;;2.83;;
29362;SDS011;16349;53.672;10.014;2022-07-22T06:55:07;10.67;;;3.10;;
29362;SDS011;16349;53.672;10.014;2022-07-22T06:57:38;6.80;;;3.17;;
29362;SDS011;16349;53.672;10.014;2022-07-22T07:00:05;9.10;;;3.20;;
29362;SDS011;16349;53.672;10.014;2022-07-22T07:02:44;10.13;;;3.17;;
29362;SDS011;16349;53.672;10.014;2022-07-22T07:05:12;8.57;;;2.80;;
29362;SDS011;16349;53.672;10.014;2022-07-22T07:07:40;9.53;;;3.40;;
29362;SDS011;16349;53.672;10.014;2022-07-22T07:10:08;7.17;;;3.70;;
29362;SDS011;16349;53.672;10.014;2022-07-22T07:12:44;7.43;;;2.90;;
29362;SDS011;16349;53.672;10.014;2022-07-22T07:15:19;7.37;;;3.10;;
29362;SDS011;16349;53.672;10.014;2022-07-22T07:17:47;9.67;;;2.63;;
29362;SDS011;16349;53.672;10.014;2022-07-22T07:20:15;14.30;;;3.20;;
29362;SDS011;16349;53.672;10.014;2022-07-22T07:22:42;6.87;;;2.50;;
29362;SDS011;16349;53.672;10.014;2022-07-22T07:25:11;10.30;;;2.97;;
29362;SDS011;16349;53.672;10.014;2022-07-22T07:27:38;6.60;;;2.20;;
29362;SDS011;16349;53.672;10.014;2022-07-22T07:30:09;7.83;;;2.70;;
29362;SDS011;16349;53.672;10.014;2022-07-22T07:32:37;7.43;;;3.00;;
29362;SDS011;16349;53.672;10.014;2022-07-22T07:35:04;12.83;;;2.80;;
29362;SDS011;16349;53.672;10.014;2022-07-22T07:37:32;5.83;;;2.83;;
29362;SDS011;16349;53.672;10.014;2022-07-22T07:39:59;8.40;;;2.97;;
29362;SDS011;16349;53.672;10.014;2022-07-22T07:42:28;8.87;;;3.23;;
29362;SDS011;16349;53.672;10.014;2022-07-22T07:44:55;8.93;;;2.50;;
29362;SDS011;16349;53.672;10.014;2022-07-22T07:47:22;8.50;;;2.87;;
29362;SDS011;16349;53.672;10.014;2022-07-22T07:49:49;7.73;;;2.37;;
29362;SDS011;16349;53.672;10.014;2022-07-22T07:52:17;11.23;;;3.50;;
29362;SDS011;16349;53.672;10.014;2022-07-22T07:54:44;9.13;;;2.33;;
29362;SDS011;16349;53.672;10.014;2022-07-22T07:57:13;7.23;;;2.33;;
29362;SDS011;16349;53.672;10.014;2022-07-22T07:59:42;10.07;;;3.10;;
29362;SDS011;16349;53.672;10.014;2022-07-22T08:02:09;8.80;;;2.47;;
29362;SDS011;16349;53.672;10.014;2022-07-22T08:04:36;10.30;;;2.70;;
29362;SDS011;16349;53.672;10.014;2022-07-22T08:07:08;7.83;;;2.30;;
29362;SDS011;16349;53.672;10.014;2022-07-22T08:09:37;9.13;;;2.67;;
29362;SDS011;16349;53.672;10.014;2022-07-22T08:12:12;7.90;;;2.70;;
29362;SDS011;16349;53.672;10.014;2022-07-22T08:14:55;7.30;;;2.80;;
29362;SDS011;16349;53.672;10.014;2022-07-22T08:17:44;11.27;;;2.20;;
29362;SDS011;16349;53.672;10.014;2022-07-22T08:20:11;10.07;;;2.33;;
29362;SDS011;16349;53.672;10.014;2022-07-22T08:22:37;7.60;;;2.43;;
29362;SDS011;16349;53.672;10.014;2022-07-22T08:25:05;6.43;;;2.13;;
29362;SDS011;16349;53.672;10.014;2022-07-22T08:27:32;7.57;;;3.10;;
29362;SDS011;16349;53.672;10.014;2022-07-22T08:30:00;11.47;;;2.23;;
29362;SDS011;16349;53.672;10.014;2022-07-22T08:32:29;7.63;;;1.97;;
29362;SDS011;16349;53.672;10.014;2022-07-22T08:34:56;6.70;;;2.57;;
29362;SDS011;16349;53.672;10.014;2022-07-22T08:37:23;13.17;;;2.20;;
29362;SDS011;16349;53.672;10.014;2022-07-22T08:39:51;8.10;;;2.30;;
29362;SDS011;16349;53.672;10.014;2022-07-22T08:42:19;10.13;;;2.40;;
29362;SDS011;16349;53.672;10.014;2022-07-22T08:44:47;5.77;;;1.60;;
29362;SDS011;16349;53.672;10.014;2022-07-22T08:47:19;5.93;;;2.67;;
29362;SDS011;16349;53.672;10.014;2022-07-22T08:50:05;4.27;;;1.43;;
29362;SDS011;16349;53.672;10.014;2022-07-22T08:52:42;4.50;;;1.83;;
29362;SDS011;16349;53.672;10.014;2022-07-22T08:55:09;6.17;;;1.80;;
29362;SDS011;16349;53.672;10.014;2022-07-22T08:57:36;5.80;;;1.73;;
29362;SDS011;16349;53.672;10.014;2022-07-22T09:00:08;8.60;;;2.63;;
29362;SDS011;16349;53.672;10.014;2022-07-22T09:02:38;7.00;;;2.37;;
29362;SDS011;16349;53.672;10.014;2022-07-22T09:05:09;9.43;;;2.47;;
29362;SDS011;16349;53.672;10.014;2022-07-22T09:07:40;6.60;;;1.93;;
29362;SDS011;16349;53.672;10.014;2022-07-22T09:10:16;7.13;;;1.90;;
29362;SDS011;16349;53.672;10.014;2022-07-22T09:13:14;6.00;;;2.00;;
29362;SDS011;16349;53.672;10.014;2022-07-22T09:15:47;6.60;;;1.87;;
29362;SDS011;16349;53.672;10.014;2022-07-22T09:18:45;6.43;;;2.10;;
29362;SDS011;16349;53.672;10.014;2022-07-22T09:21:28;8.57;;;2.67;;
29362;SDS011;16349;53.672;10.014;2022-07-22T09:24:25;6.63;;;2.10;;
29362;SDS011;16349;53.672;10.014;2022-07-22T09:26:55;4.97;;;1.97;;
29362;SDS011;16349;53.672;10.014;2022-07-22T09:29:36;6.43;;;1.40;;
29362;SDS011;16349;53.672;10.014;2022-07-22T09:32:13;5.90;;;1.30;;
29362;SDS011;16349;53.672;10.014;2022-07-22T09:34:56;2.23;;;1.50;;
29362;SDS011;16349;53.672;10.014;2022-07-22T09:37:33;4.47;;;1.47;;
29362;SDS011;16349;53.672;10.014;2022-07-22T09:42:45;6.93;;;1.60;;
29362;SDS011;16349;53.672;10.014;2022-07-22T09:45:14;12.10;;;1.90;;
29362;SDS011;16349;53.672;10.014;2022-07-22T09:47:42;6.70;;;2.10;;
29362;SDS011;16349;53.672;10.014;2022-07-22T09:50:31;5.50;;;1.37;;
29362;SDS011;16349;53.672;10.014;2022-07-22T09:53:14;8.17;;;1.50;;
29362;SDS011;16349;53.672;10.014;2022-07-22T09:55:47;4.47;;;1.67;;
29362;SDS011;16349;53.672;10.014;2022-07-22T09:58:15;3.33;;;1.40;;
29362;SDS011;16349;53.672;10.014;2022-07-22T10:00:42;8.30;;;2.60;;
29362;SDS011;16349;53.672;10.014;2022-07-22T10:03:16;4.57;;;1.80;;
29362;SDS011;16349;53.672;10.014;2022-07-22T10:05:46;5.57;;;1.60;;
29362;SDS011;16349;53.672;10.014;2022-07-22T10:08:13;6.57;;;1.70;;
29362;SDS011;16349;53.672;10.014;2022-07-22T10:10:40;7.00;;;1.73;;
29362;SDS011;16349;53.672;10.014;2022-07-22T10:13:08;7.10;;;2.10;;
29362;SDS011;16349;53.672;10.014;2022-07-22T10:15:35;3.03;;;1.40;;
29362;SDS011;16349;53.672;10.014;2022-07-22T10:18:05;4.03;;;1.60;;
29362;SDS011;16349;53.672;10.014;2022-07-22T10:20:34;7.77;;;1.80;;
29362;SDS011;16349;53.672;10.014;2022-07-22T10:23:03;4.93;;;1.60;;
29362;SDS011;16349;53.672;10.014;2022-07-22T10:25:33;14.43;;;2.00;;
29362;SDS011;16349;53.672;10.014;2022-07-22T10:28:20;5.43;;;2.07;;
29362;SDS011;16349;53.672;10.014;2022-07-22T10:30:49;8.50;;;1.83;;
29362;SDS011;16349;53.672;10.014;2022-07-22T10:33:17;4.70;;;1.40;;
29362;SDS011;16349;53.672;10.014;2022-07-22T10:35:52;6.03;;;1.40;;
29362;SDS011;16349;53.672;10.014;2022-07-22T10:38:23;5.33;;;1.60;;
29362;SDS011;16349;53.672;10.014;2022-07-22T10:40:53;4.83;;;1.40;;
29362;SDS011;16349;53.672;10.014;2022-07-22T10:43:21;5.17;;;1.80;;
29362;SDS011;16349;53.672;10.014;2022-07-22T10:45:51;2.93;;;1.40;;
29362;SDS011;16349;53.672;10.014;2022-07-22T10:48:21;3.47;;;1.60;;
29362;SDS011;16349;53.672;10.014;2022-07-22T10:53:41;5.47;;;1.07;;
29362;SDS011;16349;53.672;10.014;2022-07-22T10:56:17;6.73;;;1.67;;
29362;SDS011;16349;53.672;10.014;2022-07-22T10:58:47;5.95;;;1.55;;
29362;SDS011;16349;53.672;10.014;2022-07-22T11:01:17;4.23;;;1.20;;
29362;SDS011;16349;53.672;10.014;2022-07-22T11:03:46;2.77;;;1.10;;
29362;SDS011;16349;53.672;10.014;2022-07-22T11:06:16;2.77;;;1.40;;
29362;SDS011;16349;53.672;10.014;2022-07-22T11:08:48;5.40;;;1.17;;
29362;SDS011;16349;53.672;10.014;2022-07-22T11:11:17;2.97;;;1.70;;
29362;SDS011;16349;53.672;10.014;2022-07-22T11:13:44;3.73;;;1.10;;
29362;SDS011;16349;53.672;10.014;2022-07-22T11:16:16;5.13;;;1.13;;
29362;SDS011;16349;53.672;10.014;2022-07-22T11:18:45;6.63;;;1.20;;
29362;SDS011;16349;53.672;10.014;2022-07-22T11:21:18;2.47;;;1.40;;
29362;SDS011;16349;53.672;10.014;2022-07-22T11:23:48;2.67;;;1.20;;
29362;SDS011;16349;53.672;10.014;2022-07-22T11:26:16;2.13;;;0.97;;
29362;SDS011;16349;53.672;10.014;2022-07-22T11:28:45;5.73;;;1.23;;
29362;SDS011;16349;53.672;10.014;2022-07-22T11:31:16;2.80;;;1.00;;
29362;SDS011;16349;53.672;10.014;2022-07-22T11:33:44;5.17;;;1.27;;
29362;SDS011;16349;53.672;10.014;2022-07-22T11:36:12;9.70;;;1.47;;
29362;SDS011;16349;53.672;10.014;2022-07-22T11:38:40;4.67;;;1.23;;
29362;SDS011;16349;53.672;10.014;2022-07-22T11:41:09;4.33;;;1.37;;
29362;SDS011;16349;53.672;10.014;2022-07-22T11:43:40;7.47;;;1.60;;
29362;SDS011;16349;53.672;10.014;2022-07-22T11:46:10;3.83;;;1.30;;
29362;SDS011;16349;53.672;10.014;2022-07-22T11:48:37;6.43;;;1.20;;
29362;SDS011;16349;53.672;10.014;2022-07-22T11:51:05;6.37;;;1.23;;
29362;SDS011;16349;53.672;10.014;2022-07-22T11:53:32;4.47;;;1.27;;
29362;SDS011;16349;53.672;10.014;2022-07-22T11:56:00;5.13;;;1.00;;
29362;SDS011;16349;53.672;10.014;2022-07-22T11:58:36;3.67;;;1.30;;
29362;SDS011;16349;53.672;10.014;2022-07-22T12:01:05;2.77;;;1.10;;
29362;SDS011;16349;53.672;10.014;2022-07-22T12:03:33;3.70;;;1.43;;
29362;SDS011;16349;53.672;10.014;2022-07-22T12:06:01;6.77;;;1.37;;
29362;SDS011;16349;53.672;10.014;2022-07-22T12:08:29;4.73;;;1.30;;
29362;SDS011;16349;53.672;10.014;2022-07-22T12:10:57;2.83;;;0.97;;
29362;SDS011;16349;53.672;10.014;2022-07-22T12:13:28;3.53;;;1.13;;
29362;SDS011;16349;53.672;10.014;2022-07-22T12:15:58;3.83;;;1.53;;
29362;SDS011;16349;53.672;10.014;2022-07-22T12:18:26;3.93;;;1.17;;
29362;SDS011;16349;53.672;10.014;2022-07-22T12:20:55;3.43;;;1.03;;
29362;SDS011;16349;53.672;10.014;2022-07-22T12:23:24;2.13;;;1.00;;
29362;SDS011;16349;53.672;10.014;2022-07-22T12:25:53;4.43;;;1.00;;
29362;SDS011;16349;53.672;10.014;2022-07-22T12:28:21;3.43;;;1.23;;
29362;SDS011;16349;53.672;10.014;2022-07-22T12:30:49;3.53;;;1.03;;
29362;SDS011;16349;53.672;10.014;2022-07-22T12:33:18;3.00;;;1.30;;
29362;SDS011;16349;53.672;10.014;2022-07-22T12:35:57;4.10;;;1.43;;
29362;SDS011;16349;53.672;10.014;2022-07-22T12:38:26;3.37;;;1.10;;
29362;SDS011;16349;53.672;10.014;2022-07-22T12:40:53;4.97;;;1.03;;
29362;SDS011;16349;53.672;10.014;2022-07-22T12:43:23;4.80;;;1.33;;
29362;SDS011;16349;53.672;10.014;2022-07-22T12:45:51;2.13;;;1.03;;
29362;SDS011;16349;53.672;10.014;2022-07-22T12:48:19;3.07;;;0.90;;
29362;SDS011;16349;53.672;10.014;2022-07-22T12:50:54;2.60;;;0.90;;
29362;SDS011;16349;53.672;10.014;2022-07-22T12:53:22;2.20;;;0.90;;
29362;SDS011;16349;53.672;10.014;2022-07-22T12:55:52;5.17;;;1.17;;
29362;SDS011;16349;53.672;10.014;2022-07-22T12:58:21;3.33;;;1.20;;
29362;SDS011;16349;53.672;10.014;2022-07-22T13:00:51;3.30;;;1.30;;
29362;SDS011;16349;53.672;10.014;2022-07-22T13:03:21;3.17;;;1.30;;
29362;SDS011;16349;53.672;10.014;2022-07-22T13:05:51;3.33;;;1.53;;
29362;SDS011;16349;53.672;10.014;2022-07-22T13:08:19;7.67;;;1.27;;
29362;SDS011;16349;53.672;10.014;2022-07-22T13:10:46;2.87;;;1.03;;
29362;SDS011;16349;53.672;10.014;2022-07-22T13:13:13;4.73;;;1.03;;
29362;SDS011;16349;53.672;10.014;2022-07-22T13:15:40;6.53;;;1.30;;
29362;SDS011;16349;53.672;10.014;2022-07-22T13:18:07;5.53;;;1.67;;
29362;SDS011;16349;53.672;10.014;2022-07-22T13:20:36;3.37;;;1.53;;
29362;SDS011;16349;53.672;10.014;2022-07-22T13:23:03;6.73;;;1.60;;
29362;SDS011;16349;53.672;10.014;2022-07-22T13:25:29;3.50;;;1.00;;
29362;SDS011;16349;53.672;10.014;2022-07-22T13:27:58;4.30;;;1.17;;
29362;SDS011;16349;53.672;10.014;2022-07-22T13:30:25;4.07;;;1.23;;
29362;SDS011;16349;53.672;10.014;2022-07-22T13:32:53;3.13;;;1.03;;
29362;SDS011;16349;53.672;10.014;2022-07-22T13:35:19;4.47;;;1.43;;
29362;SDS011;16349;53.672;10.014;2022-07-22T13:37:48;4.20;;;1.20;;
29362;SDS011;16349;53.672;10.014;2022-07-22T13:40:15;3.97;;;1.10;;
29362;SDS011;16349;53.672;10.014;2022-07-22T13:42:42;3.70;;;1.10;;
29362;SDS011;16349;53.672;10.014;2022-07-22T13:45:09;5.63;;;1.10;;
29362;SDS011;16349;53.672;10.014;2022-07-22T13:47:36;2.27;;;1.10;;
29362;SDS011;16349;53.672;10.014;2022-07-22T13:50:06;4.33;;;1.30;;
29362;SDS011;16349;53.672;10.014;2022-07-22T13:52:34;3.73;;;1.60;;
29362;SDS011;16349;53.672;10.014;2022-07-22T13:55:02;1.77;;;1.03;;
29362;SDS011;16349;53.672;10.014;2022-07-22T13:57:30;3.93;;;1.17;;
29362;SDS011;16349;53.672;10.014;2022-07-22T13:59:58;1.77;;;1.30;;
29362;SDS011;16349;53.672;10.014;2022-07-22T14:02:25;2.23;;;1.30;;
29362;SDS011;16349;53.672;10.014;2022-07-22T14:04:52;4.97;;;1.23;;
29362;SDS011;16349;53.672;10.014;2022-07-22T14:07:19;2.17;;;1.10;;
29362;SDS011;16349;53.672;10.014;2022-07-22T14:09:46;3.07;;;1.77;;
29362;SDS011;16349;53.672;10.014;2022-07-22T14:12:14;2.73;;;1.10;;
29362;SDS011;16349;53.672;10.014;2022-07-22T14:14:42;4.00;;;0.90;;
29362;SDS011;16349;53.672;10.014;2022-07-22T14:17:08;2.27;;;0.90;;
29362;SDS011;16349;53.672;10.014;2022-07-22T14:19:36;2.63;;;1.07;;
29362;SDS011;16349;53.672;10.014;2022-07-22T14:22:03;4.20;;;1.77;;
29362;SDS011;16349;53.672;10.014;2022-07-22T14:24:30;3.20;;;0.90;;
29362;SDS011;16349;53.672;10.014;2022-07-22T14:26:57;3.47;;;1.13;;
29362;SDS011;16349;53.672;10.014;2022-07-22T14:29:25;5.53;;;1.43;;
29362;SDS011;16349;53.672;10.014;2022-07-22T14:31:52;1.67;;;1.03;;
29362;SDS011;16349;53.672;10.014;2022-07-22T14:34:19;0.97;;;0.90;;
29362;SDS011;16349;53.672;10.014;2022-07-22T14:36:46;2.63;;;1.07;;
29362;SDS011;16349;53.672;10.014;2022-07-22T14:39:13;5.60;;;1.30;;
29362;SDS011;16349;53.672;10.014;2022-07-22T14:41:40;6.07;;;1.50;;
29362;SDS011;16349;53.672;10.014;2022-07-22T14:44:11;5.73;;;1.70;;
29362;SDS011;16349;53.672;10.014;2022-07-22T14:46:39;2.13;;;0.97;;
29362;SDS011;16349;53.672;10.014;2022-07-22T14:49:06;3.70;;;1.10;;
29362;SDS011;16349;53.672;10.014;2022-07-22T14:51:33;2.23;;;0.90;;